sensor_id;sensor_type;location;lat;lon;timestamp;temperature;humidity
23291;DHT22;11814;44.686;10.842;2023-12-20T00:00:58;4.90;99.90
23291;DHT22;11814;44.686;10.842;2023-12-20T00:03:24;4.90;99.90
23291;DHT22;11814;44.686;10.842;2023-12-20T00:05:49;4.90;99.90
23291;DHT22;11814;44.686;10.842;2023-12-20T00:08:16;4.90;99.90
23291;DHT22;11814;44.686;10.842;2023-12-20T00:10:42;4.90;99.90
23291;DHT22;11814;44.686;10.842;2023-12-20T00:13:08;4.90;99.90
23291;DHT22;11814;44.686;10.842;2023-12-20T00:15:34;4.90;99.90
23291;DHT22;11814;44.686;10.842;2023-12-20T00:18:00;4.80;99.90
23291;DHT22;11814;44.686;10.842;2023-12-20T00:20:26;4.70;99.90
23291;DHT22;11814;44.686;10.842;2023-12-20T00:22:53;4.70;99.90
23291;DHT22;11814;44.686;10.842;2023-12-20T00:25:19;4.70;99.90
23291;DHT22;11814;44.686;10.842;2023-12-20T00:27:44;4.60;99.90
23291;DHT22;11814;44.686;10.842;2023-12-20T00:30:10;4.60;99.90
23291;DHT22;11814;44.686;10.842;2023-12-20T00:32:36;4.60;99.90
23291;DHT22;11814;44.686;10.842;2023-12-20T00:35:02;4.50;99.90
23291;DHT22;11814;44.686;10.842;2023-12-20T00:37:27;4.50;99.90
23291;DHT22;11814;44.686;10.842;2023-12-20T00:39:53;4.50;99.90
23291;DHT22;11814;44.686;10.842;2023-12-20T00:42:18;4.50;99.90
23291;DHT22;11814;44.686;10.842;2023-12-20T00:44:44;4.40;99.90
23291;DHT22;11814;44.686;10.842;2023-12-20T00:47:10;4.30;99.90
23291;DHT22;11814;44.686;10.842;2023-12-20T00:49:36;4.20;99.90
23291;DHT22;11814;44.686;10.842;2023-12-20T00:52:01;4.20;99.90
23291;DHT22;11814;44.686;10.842;2023-12-20T00:54:27;4.10;99.90
23291;DHT22;11814;44.686;10.842;2023-12-20T00:56:52;4.20;99.90
23291;DHT22;11814;44.686;10.842;2023-12-20T00:59:19;4.20;99.90
23291;DHT22;11814;44.686;10.842;2023-12-20T01:01:45;4.20;99.90
23291;DHT22;11814;44.686;10.842;2023-12-20T01:04:10;4.20;99.90
23291;DHT22;11814;44.686;10.842;2023-12-20T01:06:36;4.40;99.90
23291;DHT22;11814;44.686;10.842;2023-12-20T01:09:02;4.20;99.90
23291;DHT22;11814;44.686;10.842;2023-12-20T01:11:28;4.20;99.90
23291;DHT22;11814;44.686;10.842;2023-12-20T01:13:53;4.20;99.90
23291;DHT22;11814;44.686;10.842;2023-12-20T01:16:19;4.20;99.90
23291;DHT22;11814;44.686;10.842;2023-12-20T01:18:45;4.20;99.90
23291;DHT22;11814;44.686;10.842;2023-12-20T01:21:10;4.20;99.90
23291;DHT22;11814;44.686;10.842;2023-12-20T01:23:36;4.20;99.90
23291;DHT22;11814;44.686;10.842;2023-12-20T01:26:01;4.30;99.90
23291;DHT22;11814;44.686;10.842;2023-12-20T01:28:28;4.20;99.90
23291;DHT22;11814;44.686;10.842;2023-12-20T01:30:54;4.20;99.90
23291;DHT22;11814;44.686;10.842;2023-12-20T01:33:19;4.10;99.90
23291;DHT22;11814;44.686;10.842;2023-12-20T01:35:45;4.10;99.90
23291;DHT22;11814;44.686;10.842;2023-12-20T01:38:10;4.00;99.90
23291;DHT22;11814;44.686;10.842;2023-12-20T01:40:36;4.00;99.90
23291;DHT22;11814;44.686;10.842;2023-12-20T01:43:08;4.00;99.90
23291;DHT22;11814;44.686;10.842;2023-12-20T01:45:35;4.00;99.90
23291;DHT22;11814;44.686;10.842;2023-12-20T01:48:01;4.00;99.90
23291;DHT22;11814;44.686;10.842;2023-12-20T01:50:28;4.00;99.90
23291;DHT22;11814;44.686;10.842;2023-12-20T01:52:56;3.90;99.90
23291;DHT22;11814;44.686;10.842;2023-12-20T01:55:24;3.80;99.90
23291;DHT22;11814;44.686;10.842;2023-12-20T01:57:50;3.80;99.90
23291;DHT22;11814;44.686;10.842;2023-12-20T02:00:17;3.80;99.90
23291;DHT22;11814;44.686;10.842;2023-12-20T02:02:45;3.70;99.90
23291;DHT22;11814;44.686;10.842;2023-12-20T02:05:11;3.80;99.90
23291;DHT22;11814;44.686;10.842;2023-12-20T02:07:37;3.90;99.90
23291;DHT22;11814;44.686;10.842;2023-12-20T02:10:02;3.90;99.90
23291;DHT22;11814;44.686;10.842;2023-12-20T02:12:29;3.90;99.90
23291;DHT22;11814;44.686;10.842;2023-12-20T02:14:55;4.00;99.90
23291;DHT22;11814;44.686;10.842;2023-12-20T02:17:22;4.00;99.90
23291;DHT22;11814;44.686;10.842;2023-12-20T02:19:50;4.00;99.90
23291;DHT22;11814;44.686;10.842;2023-12-20T02:22:16;4.00;99.90
23291;DHT22;11814;44.686;10.842;2023-12-20T02:24:41;4.00;99.90
23291;DHT22;11814;44.686;10.842;2023-12-20T02:27:08;3.90;99.90
23291;DHT22;11814;44.686;10.842;2023-12-20T02:29:34;3.90;99.90
23291;DHT22;11814;44.686;10.842;2023-12-20T02:32:00;3.80;99.90
23291;DHT22;11814;44.686;10.842;2023-12-20T02:34:25;3.80;99.90
23291;DHT22;11814;44.686;10.842;2023-12-20T02:36:51;3.70;99.90
23291;DHT22;11814;44.686;10.842;2023-12-20T02:39:17;3.70;99.90
23291;DHT22;11814;44.686;10.842;2023-12-20T02:41:43;3.70;99.90
23291;DHT22;11814;44.686;10.842;2023-12-20T02:44:09;3.70;99.90
23291;DHT22;11814;44.686;10.842;2023-12-20T02:46:34;3.60;99.90
23291;DHT22;11814;44.686;10.842;2023-12-20T02:49:00;3.60;99.90
23291;DHT22;11814;44.686;10.842;2023-12-20T02:51:26;3.60;99.90
23291;DHT22;11814;44.686;10.842;2023-12-20T02:53:51;3.50;99.90
23291;DHT22;11814;44.686;10.842;2023-12-20T02:56:17;3.50;99.90
23291;DHT22;11814;44.686;10.842;2023-12-20T02:58:42;3.50;99.90
23291;DHT22;11814;44.686;10.842;2023-12-20T03:01:08;3.50;99.90
23291;DHT22;11814;44.686;10.842;2023-12-20T03:03:34;3.50;99.90
23291;DHT22;11814;44.686;10.842;2023-12-20T03:06:00;3.50;99.90
23291;DHT22;11814;44.686;10.842;2023-12-20T03:08:26;3.50;99.90
23291;DHT22;11814;44.686;10.842;2023-12-20T03:10:51;3.50;99.90
23291;DHT22;11814;44.686;10.842;2023-12-20T03:13:18;3.40;99.90
23291;DHT22;11814;44.686;10.842;2023-12-20T03:15:45;3.30;99.90
23291;DHT22;11814;44.686;10.842;2023-12-20T03:18:10;3.30;99.90
23291;DHT22;11814;44.686;10.842;2023-12-20T03:20:36;3.30;99.90
23291;DHT22;11814;44.686;10.842;2023-12-20T03:23:02;3.30;99.90
23291;DHT22;11814;44.686;10.842;2023-12-20T03:25:27;3.30;99.90
23291;DHT22;11814;44.686;10.842;2023-12-20T03:27:53;3.40;99.90
23291;DHT22;11814;44.686;10.842;2023-12-20T03:30:19;3.40;99.90
23291;DHT22;11814;44.686;10.842;2023-12-20T03:32:45;3.40;99.90
23291;DHT22;11814;44.686;10.842;2023-12-20T03:35:11;3.30;99.90
23291;DHT22;11814;44.686;10.842;2023-12-20T03:37:36;3.30;99.90
23291;DHT22;11814;44.686;10.842;2023-12-20T03:40:02;3.20;99.90
23291;DHT22;11814;44.686;10.842;2023-12-20T03:42:28;3.20;99.90
23291;DHT22;11814;44.686;10.842;2023-12-20T03:44:54;3.10;99.90
23291;DHT22;11814;44.686;10.842;2023-12-20T03:47:20;3.00;99.90
23291;DHT22;11814;44.686;10.842;2023-12-20T03:49:45;3.00;99.90
23291;DHT22;11814;44.686;10.842;2023-12-20T03:52:11;3.00;99.90
23291;DHT22;11814;44.686;10.842;2023-12-20T03:54:37;3.00;99.90
23291;DHT22;11814;44.686;10.842;2023-12-20T03:57:03;3.10;99.90
23291;DHT22;11814;44.686;10.842;2023-12-20T03:59:30;3.10;99.90
23291;DHT22;11814;44.686;10.842;2023-12-20T04:01:59;3.20;99.90
23291;DHT22;11814;44.686;10.842;2023-12-20T04:04:25;3.20;99.90
23291;DHT22;11814;44.686;10.842;2023-12-20T04:06:51;3.30;99.90
23291;DHT22;11814;44.686;10.842;2023-12-20T04:09:16;3.50;99.90
23291;DHT22;11814;44.686;10.842;2023-12-20T04:11:42;3.50;99.90
23291;DHT22;11814;44.686;10.842;2023-12-20T04:14:07;3.50;99.90
23291;DHT22;11814;44.686;10.842;2023-12-20T04:16:33;3.60;99.90
23291;DHT22;11814;44.686;10.842;2023-12-20T04:18:59;3.70;99.90
23291;DHT22;11814;44.686;10.842;2023-12-20T04:21:24;3.70;99.90
23291;DHT22;11814;44.686;10.842;2023-12-20T04:23:50;3.70;99.90
23291;DHT22;11814;44.686;10.842;2023-12-20T04:26:15;3.80;99.90
23291;DHT22;11814;44.686;10.842;2023-12-20T04:28:41;3.80;99.90
23291;DHT22;11814;44.686;10.842;2023-12-20T04:31:07;3.80;99.90
23291;DHT22;11814;44.686;10.842;2023-12-20T04:33:33;3.90;99.90
23291;DHT22;11814;44.686;10.842;2023-12-20T04:35:58;3.90;99.90
23291;DHT22;11814;44.686;10.842;2023-12-20T04:38:25;3.90;99.90
23291;DHT22;11814;44.686;10.842;2023-12-20T04:40:51;3.90;99.90
23291;DHT22;11814;44.686;10.842;2023-12-20T04:43:17;4.00;99.90
23291;DHT22;11814;44.686;10.842;2023-12-20T04:45:42;4.00;99.90
23291;DHT22;11814;44.686;10.842;2023-12-20T04:48:08;4.10;99.90
23291;DHT22;11814;44.686;10.842;2023-12-20T04:50:34;4.10;99.90
23291;DHT22;11814;44.686;10.842;2023-12-20T04:53:00;4.10;99.90
23291;DHT22;11814;44.686;10.842;2023-12-20T04:55:25;4.10;99.90
23291;DHT22;11814;44.686;10.842;2023-12-20T04:57:51;4.00;99.90
23291;DHT22;11814;44.686;10.842;2023-12-20T05:00:17;4.10;99.90
23291;DHT22;11814;44.686;10.842;2023-12-20T05:02:43;4.10;99.90
23291;DHT22;11814;44.686;10.842;2023-12-20T05:05:08;4.00;99.90
23291;DHT22;11814;44.686;10.842;2023-12-20T05:07:34;4.00;99.90
23291;DHT22;11814;44.686;10.842;2023-12-20T05:10:00;4.00;99.90
23291;DHT22;11814;44.686;10.842;2023-12-20T05:12:25;4.00;99.90
23291;DHT22;11814;44.686;10.842;2023-12-20T05:14:52;4.00;99.90
23291;DHT22;11814;44.686;10.842;2023-12-20T05:17:17;4.00;99.90
23291;DHT22;11814;44.686;10.842;2023-12-20T05:19:43;4.00;99.90
23291;DHT22;11814;44.686;10.842;2023-12-20T05:22:09;4.00;99.90
23291;DHT22;11814;44.686;10.842;2023-12-20T05:24:35;4.00;99.90
23291;DHT22;11814;44.686;10.842;2023-12-20T05:27:00;3.90;99.90
23291;DHT22;11814;44.686;10.842;2023-12-20T05:29:26;3.90;99.90
23291;DHT22;11814;44.686;10.842;2023-12-20T05:31:51;3.90;99.90
23291;DHT22;11814;44.686;10.842;2023-12-20T05:34:17;3.80;99.90
23291;DHT22;11814;44.686;10.842;2023-12-20T05:36:43;3.80;99.90
23291;DHT22;11814;44.686;10.842;2023-12-20T05:39:08;3.80;99.90
23291;DHT22;11814;44.686;10.842;2023-12-20T05:41:34;3.80;99.90
23291;DHT22;11814;44.686;10.842;2023-12-20T05:44:00;3.80;99.90
23291;DHT22;11814;44.686;10.842;2023-12-20T05:46:25;3.80;99.90
23291;DHT22;11814;44.686;10.842;2023-12-20T05:48:51;3.80;99.90
23291;DHT22;11814;44.686;10.842;2023-12-20T05:51:17;3.80;99.90
23291;DHT22;11814;44.686;10.842;2023-12-20T05:53:43;3.80;99.90
23291;DHT22;11814;44.686;10.842;2023-12-20T05:56:09;3.70;99.90
23291;DHT22;11814;44.686;10.842;2023-12-20T05:58:35;3.70;99.90
23291;DHT22;11814;44.686;10.842;2023-12-20T06:01:04;3.60;99.90
23291;DHT22;11814;44.686;10.842;2023-12-20T06:03:30;3.50;99.90
23291;DHT22;11814;44.686;10.842;2023-12-20T06:05:55;3.50;99.90
23291;DHT22;11814;44.686;10.842;2023-12-20T06:08:21;3.60;99.90
23291;DHT22;11814;44.686;10.842;2023-12-20T06:10:47;3.70;99.90
23291;DHT22;11814;44.686;10.842;2023-12-20T06:13:12;3.70;99.90
23291;DHT22;11814;44.686;10.842;2023-12-20T06:15:39;3.80;99.90
23291;DHT22;11814;44.686;10.842;2023-12-20T06:18:06;3.80;99.90
23291;DHT22;11814;44.686;10.842;2023-12-20T06:20:32;3.80;99.90
23291;DHT22;11814;44.686;10.842;2023-12-20T06:22:58;3.70;99.90
23291;DHT22;11814;44.686;10.842;2023-12-20T06:25:23;3.80;99.90
23291;DHT22;11814;44.686;10.842;2023-12-20T06:27:49;3.80;99.90
23291;DHT22;11814;44.686;10.842;2023-12-20T06:30:15;3.90;99.90
23291;DHT22;11814;44.686;10.842;2023-12-20T06:32:41;4.00;99.90
23291;DHT22;11814;44.686;10.842;2023-12-20T06:35:11;4.10;99.90
23291;DHT22;11814;44.686;10.842;2023-12-20T06:37:36;4.10;99.90
23291;DHT22;11814;44.686;10.842;2023-12-20T06:40:02;4.30;99.90
23291;DHT22;11814;44.686;10.842;2023-12-20T06:42:27;4.40;99.90
23291;DHT22;11814;44.686;10.842;2023-12-20T06:44:53;4.40;99.90
23291;DHT22;11814;44.686;10.842;2023-12-20T06:47:19;4.40;99.90
23291;DHT22;11814;44.686;10.842;2023-12-20T06:49:44;4.40;99.90
23291;DHT22;11814;44.686;10.842;2023-12-20T06:52:10;4.40;99.90
23291;DHT22;11814;44.686;10.842;2023-12-20T06:54:35;4.40;99.90
23291;DHT22;11814;44.686;10.842;2023-12-20T06:57:01;4.40;99.90
23291;DHT22;11814;44.686;10.842;2023-12-20T06:59:29;4.50;99.90
23291;DHT22;11814;44.686;10.842;2023-12-20T07:01:58;4.50;99.90
23291;DHT22;11814;44.686;10.842;2023-12-20T07:04:23;4.50;99.90
23291;DHT22;11814;44.686;10.842;2023-12-20T07:06:49;4.60;99.90
23291;DHT22;11814;44.686;10.842;2023-12-20T07:09:17;4.60;99.90
23291;DHT22;11814;44.686;10.842;2023-12-20T07:11:43;4.70;99.90
23291;DHT22;11814;44.686;10.842;2023-12-20T07:14:08;4.70;99.90
23291;DHT22;11814;44.686;10.842;2023-12-20T07:16:34;4.80;99.90
23291;DHT22;11814;44.686;10.842;2023-12-20T07:19:00;4.80;99.90
23291;DHT22;11814;44.686;10.842;2023-12-20T07:21:26;4.80;99.90
23291;DHT22;11814;44.686;10.842;2023-12-20T07:23:51;4.80;99.90
23291;DHT22;11814;44.686;10.842;2023-12-20T07:26:17;4.90;99.90
23291;DHT22;11814;44.686;10.842;2023-12-20T07:28:43;4.90;99.90
23291;DHT22;11814;44.686;10.842;2023-12-20T07:31:08;5.00;99.90
23291;DHT22;11814;44.686;10.842;2023-12-20T07:33:34;5.10;99.90
23291;DHT22;11814;44.686;10.842;2023-12-20T07:35:59;5.20;99.90
23291;DHT22;11814;44.686;10.842;2023-12-20T07:38:26;5.20;99.90
23291;DHT22;11814;44.686;10.842;2023-12-20T07:40:51;5.30;99.90
23291;DHT22;11814;44.686;10.842;2023-12-20T07:43:17;5.40;99.90
23291;DHT22;11814;44.686;10.842;2023-12-20T07:45:43;5.50;99.90
23291;DHT22;11814;44.686;10.842;2023-12-20T07:48:08;5.50;99.90
23291;DHT22;11814;44.686;10.842;2023-12-20T07:50:34;5.50;99.90
23291;DHT22;11814;44.686;10.842;2023-12-20T07:53:00;5.70;99.90
23291;DHT22;11814;44.686;10.842;2023-12-20T07:55:26;5.50;99.90
23291;DHT22;11814;44.686;10.842;2023-12-20T07:57:52;5.50;99.90
23291;DHT22;11814;44.686;10.842;2023-12-20T08:00:18;5.40;99.90
23291;DHT22;11814;44.686;10.842;2023-12-20T08:02:44;5.40;99.90
23291;DHT22;11814;44.686;10.842;2023-12-20T08:05:10;5.50;99.90
23291;DHT22;11814;44.686;10.842;2023-12-20T08:07:36;5.40;99.90
23291;DHT22;11814;44.686;10.842;2023-12-20T08:10:01;5.60;99.90
23291;DHT22;11814;44.686;10.842;2023-12-20T08:12:27;5.50;99.90
23291;DHT22;11814;44.686;10.842;2023-12-20T08:14:54;5.60;99.90
23291;DHT22;11814;44.686;10.842;2023-12-20T08:17:20;5.70;99.90
23291;DHT22;11814;44.686;10.842;2023-12-20T08:19:45;5.60;99.90
23291;DHT22;11814;44.686;10.842;2023-12-20T08:22:11;5.50;99.90
23291;DHT22;11814;44.686;10.842;2023-12-20T08:24:37;5.60;99.90
23291;DHT22;11814;44.686;10.842;2023-12-20T08:27:03;5.60;99.90
23291;DHT22;11814;44.686;10.842;2023-12-20T08:29:29;5.70;99.90
23291;DHT22;11814;44.686;10.842;2023-12-20T08:31:55;5.80;99.90
23291;DHT22;11814;44.686;10.842;2023-12-20T08:34:21;5.80;99.90
23291;DHT22;11814;44.686;10.842;2023-12-20T08:36:47;5.90;99.90
23291;DHT22;11814;44.686;10.842;2023-12-20T08:39:12;6.10;99.90
23291;DHT22;11814;44.686;10.842;2023-12-20T08:41:38;6.20;99.90
23291;DHT22;11814;44.686;10.842;2023-12-20T08:44:04;6.40;99.90
23291;DHT22;11814;44.686;10.842;2023-12-20T08:46:29;6.60;99.90
23291;DHT22;11814;44.686;10.842;2023-12-20T08:48:55;6.80;99.90
23291;DHT22;11814;44.686;10.842;2023-12-20T08:51:21;7.00;99.90
23291;DHT22;11814;44.686;10.842;2023-12-20T08:53:48;7.10;99.90
23291;DHT22;11814;44.686;10.842;2023-12-20T08:56:14;7.30;99.90
23291;DHT22;11814;44.686;10.842;2023-12-20T08:58:40;7.40;99.90
23291;DHT22;11814;44.686;10.842;2023-12-20T09:01:06;7.50;99.90
23291;DHT22;11814;44.686;10.842;2023-12-20T09:03:32;7.50;99.90
23291;DHT22;11814;44.686;10.842;2023-12-20T09:05:58;7.70;99.90
23291;DHT22;11814;44.686;10.842;2023-12-20T09:08:24;7.80;99.90
23291;DHT22;11814;44.686;10.842;2023-12-20T09:10:49;8.00;99.90
23291;DHT22;11814;44.686;10.842;2023-12-20T09:13:15;7.90;99.90
23291;DHT22;11814;44.686;10.842;2023-12-20T09:15:41;8.00;99.90
23291;DHT22;11814;44.686;10.842;2023-12-20T09:18:07;8.10;99.90
23291;DHT22;11814;44.686;10.842;2023-12-20T09:20:33;8.10;99.90
23291;DHT22;11814;44.686;10.842;2023-12-20T09:22:59;8.10;99.90
23291;DHT22;11814;44.686;10.842;2023-12-20T09:25:24;8.00;99.90
23291;DHT22;11814;44.686;10.842;2023-12-20T09:27:51;8.00;99.90
23291;DHT22;11814;44.686;10.842;2023-12-20T09:30:18;7.90;99.90
23291;DHT22;11814;44.686;10.842;2023-12-20T09:32:43;7.90;99.90
23291;DHT22;11814;44.686;10.842;2023-12-20T09:35:09;7.90;99.90
23291;DHT22;11814;44.686;10.842;2023-12-20T09:37:35;7.90;99.90
23291;DHT22;11814;44.686;10.842;2023-12-20T09:40:00;7.90;99.90
23291;DHT22;11814;44.686;10.842;2023-12-20T09:42:38;7.90;99.90
23291;DHT22;11814;44.686;10.842;2023-12-20T09:45:08;7.90;99.90
23291;DHT22;11814;44.686;10.842;2023-12-20T09:47:34;8.00;99.90
23291;DHT22;11814;44.686;10.842;2023-12-20T09:50:02;7.90;99.90
23291;DHT22;11814;44.686;10.842;2023-12-20T09:52:28;8.00;99.90
23291;DHT22;11814;44.686;10.842;2023-12-20T09:54:55;7.90;99.90
23291;DHT22;11814;44.686;10.842;2023-12-20T09:57:22;8.00;99.90
23291;DHT22;11814;44.686;10.842;2023-12-20T09:59:47;7.90;99.90
23291;DHT22;11814;44.686;10.842;2023-12-20T10:02:13;8.10;99.90
23291;DHT22;11814;44.686;10.842;2023-12-20T10:04:46;8.10;99.90
23291;DHT22;11814;44.686;10.842;2023-12-20T10:07:13;8.10;99.90
23291;DHT22;11814;44.686;10.842;2023-12-20T10:09:38;8.10;99.90
23291;DHT22;11814;44.686;10.842;2023-12-20T10:12:04;8.10;99.90
23291;DHT22;11814;44.686;10.842;2023-12-20T10:14:32;8.20;99.90
23291;DHT22;11814;44.686;10.842;2023-12-20T10:17:04;8.20;99.90
23291;DHT22;11814;44.686;10.842;2023-12-20T10:19:30;8.20;99.90
23291;DHT22;11814;44.686;10.842;2023-12-20T10:21:56;8.20;99.90
23291;DHT22;11814;44.686;10.842;2023-12-20T10:24:21;8.40;99.90
23291;DHT22;11814;44.686;10.842;2023-12-20T10:26:47;8.40;99.90
23291;DHT22;11814;44.686;10.842;2023-12-20T10:29:12;8.50;99.90
23291;DHT22;11814;44.686;10.842;2023-12-20T10:31:38;8.70;99.90
23291;DHT22;11814;44.686;10.842;2023-12-20T10:34:04;8.90;99.90
23291;DHT22;11814;44.686;10.842;2023-12-20T10:36:32;9.00;99.90
23291;DHT22;11814;44.686;10.842;2023-12-20T10:38:58;9.10;99.90
23291;DHT22;11814;44.686;10.842;2023-12-20T10:41:32;9.20;99.90
23291;DHT22;11814;44.686;10.842;2023-12-20T10:44:01;9.30;99.90
23291;DHT22;11814;44.686;10.842;2023-12-20T10:46:28;9.50;99.90
23291;DHT22;11814;44.686;10.842;2023-12-20T10:48:55;9.70;99.90
23291;DHT22;11814;44.686;10.842;2023-12-20T10:51:22;9.90;99.10
23291;DHT22;11814;44.686;10.842;2023-12-20T10:53:50;10.00;98.70
23291;DHT22;11814;44.686;10.842;2023-12-20T10:56:17;10.30;98.10
23291;DHT22;11814;44.686;10.842;2023-12-20T10:58:44;10.60;97.50
23291;DHT22;11814;44.686;10.842;2023-12-20T11:01:15;10.80;96.70
23291;DHT22;11814;44.686;10.842;2023-12-20T11:03:54;10.90;96.20
23291;DHT22;11814;44.686;10.842;2023-12-20T11:06:49;11.00;95.00
23291;DHT22;11814;44.686;10.842;2023-12-20T11:09:29;11.10;94.20
23291;DHT22;11814;44.686;10.842;2023-12-20T11:12:12;11.10;93.80
23291;DHT22;11814;44.686;10.842;2023-12-20T11:14:49;11.00;93.20
23291;DHT22;11814;44.686;10.842;2023-12-20T11:17:15;10.90;93.00
23291;DHT22;11814;44.686;10.842;2023-12-20T11:20:04;10.70;92.70
23291;DHT22;11814;44.686;10.842;2023-12-20T11:22:31;10.60;92.80
23291;DHT22;11814;44.686;10.842;2023-12-20T11:25:10;10.50;92.90
23291;DHT22;11814;44.686;10.842;2023-12-20T11:27:40;10.40;93.00
23291;DHT22;11814;44.686;10.842;2023-12-20T11:30:06;10.40;93.00
23291;DHT22;11814;44.686;10.842;2023-12-20T11:32:35;10.40;93.00
23291;DHT22;11814;44.686;10.842;2023-12-20T11:35:18;10.30;92.90
23291;DHT22;11814;44.686;10.842;2023-12-20T11:37:45;10.30;92.90
23291;DHT22;11814;44.686;10.842;2023-12-20T11:40:16;10.20;93.20
23291;DHT22;11814;44.686;10.842;2023-12-20T11:42:48;10.20;92.80
23291;DHT22;11814;44.686;10.842;2023-12-20T11:45:19;10.20;92.90
23291;DHT22;11814;44.686;10.842;2023-12-20T11:47:47;10.10;93.00
23291;DHT22;11814;44.686;10.842;2023-12-20T11:50:17;10.10;93.20
23291;DHT22;11814;44.686;10.842;2023-12-20T11:52:43;10.10;93.30
23291;DHT22;11814;44.686;10.842;2023-12-20T11:55:09;10.10;93.40
23291;DHT22;11814;44.686;10.842;2023-12-20T11:57:36;10.00;93.50
23291;DHT22;11814;44.686;10.842;2023-12-20T12:00:03;10.00;93.60
23291;DHT22;11814;44.686;10.842;2023-12-20T12:02:29;10.00;93.70
23291;DHT22;11814;44.686;10.842;2023-12-20T12:04:55;10.00;93.90
23291;DHT22;11814;44.686;10.842;2023-12-20T12:07:22;9.90;94.00
23291;DHT22;11814;44.686;10.842;2023-12-20T12:09:47;9.90;94.20
23291;DHT22;11814;44.686;10.842;2023-12-20T12:12:13;9.80;94.50
23291;DHT22;11814;44.686;10.842;2023-12-20T12:14:39;9.80;94.80
23291;DHT22;11814;44.686;10.842;2023-12-20T12:17:13;9.80;95.10
23291;DHT22;11814;44.686;10.842;2023-12-20T12:19:40;9.80;95.30
23291;DHT22;11814;44.686;10.842;2023-12-20T12:22:13;9.80;95.50
23291;DHT22;11814;44.686;10.842;2023-12-20T12:24:43;9.70;95.80
23291;DHT22;11814;44.686;10.842;2023-12-20T12:27:09;9.70;96.20
23291;DHT22;11814;44.686;10.842;2023-12-20T12:29:36;9.70;96.70
23291;DHT22;11814;44.686;10.842;2023-12-20T12:32:06;9.70;97.00
23291;DHT22;11814;44.686;10.842;2023-12-20T12:34:33;9.70;97.40
23291;DHT22;11814;44.686;10.842;2023-12-20T12:36:59;9.70;97.80
23291;DHT22;11814;44.686;10.842;2023-12-20T12:39:25;9.70;98.50
23291;DHT22;11814;44.686;10.842;2023-12-20T12:41:51;9.80;98.60
23291;DHT22;11814;44.686;10.842;2023-12-20T12:44:17;9.60;98.80
23291;DHT22;11814;44.686;10.842;2023-12-20T12:46:44;9.60;99.10
23291;DHT22;11814;44.686;10.842;2023-12-20T12:49:09;9.60;99.40
23291;DHT22;11814;44.686;10.842;2023-12-20T12:51:35;9.60;99.50
23291;DHT22;11814;44.686;10.842;2023-12-20T12:54:01;9.50;99.60
23291;DHT22;11814;44.686;10.842;2023-12-20T12:56:26;9.50;99.90
23291;DHT22;11814;44.686;10.842;2023-12-20T12:58:52;9.40;99.90
23291;DHT22;11814;44.686;10.842;2023-12-20T13:01:18;9.50;99.90
23291;DHT22;11814;44.686;10.842;2023-12-20T13:03:43;9.50;99.90
23291;DHT22;11814;44.686;10.842;2023-12-20T13:06:09;9.50;99.90
23291;DHT22;11814;44.686;10.842;2023-12-20T13:08:34;9.50;99.90
23291;DHT22;11814;44.686;10.842;2023-12-20T13:11:00;9.50;99.90
23291;DHT22;11814;44.686;10.842;2023-12-20T13:13:29;9.50;99.90
23291;DHT22;11814;44.686;10.842;2023-12-20T13:15:55;9.50;99.90
23291;DHT22;11814;44.686;10.842;2023-12-20T13:18:22;9.50;99.90
23291;DHT22;11814;44.686;10.842;2023-12-20T13:20:48;9.50;99.90
23291;DHT22;11814;44.686;10.842;2023-12-20T13:23:14;9.40;99.90
23291;DHT22;11814;44.686;10.842;2023-12-20T13:25:40;9.40;99.90
23291;DHT22;11814;44.686;10.842;2023-12-20T13:28:06;9.40;99.90
23291;DHT22;11814;44.686;10.842;2023-12-20T13:30:32;9.40;99.90
23291;DHT22;11814;44.686;10.842;2023-12-20T13:32:57;9.40;99.90
23291;DHT22;11814;44.686;10.842;2023-12-20T13:35:23;9.40;99.90
23291;DHT22;11814;44.686;10.842;2023-12-20T13:37:49;9.40;99.90
23291;DHT22;11814;44.686;10.842;2023-12-20T13:40:14;9.50;99.90
23291;DHT22;11814;44.686;10.842;2023-12-20T13:42:40;9.50;99.90
23291;DHT22;11814;44.686;10.842;2023-12-20T13:45:06;9.40;99.90
23291;DHT22;11814;44.686;10.842;2023-12-20T13:47:32;9.40;99.90
23291;DHT22;11814;44.686;10.842;2023-12-20T13:49:58;9.40;99.90
23291;DHT22;11814;44.686;10.842;2023-12-20T13:52:24;9.30;99.90
23291;DHT22;11814;44.686;10.842;2023-12-20T13:54:49;9.50;99.90
23291;DHT22;11814;44.686;10.842;2023-12-20T13:57:15;9.50;99.90
23291;DHT22;11814;44.686;10.842;2023-12-20T13:59:40;9.50;99.90
23291;DHT22;11814;44.686;10.842;2023-12-20T14:02:06;9.60;99.90
23291;DHT22;11814;44.686;10.842;2023-12-20T14:04:32;9.50;99.90
23291;DHT22;11814;44.686;10.842;2023-12-20T14:06:58;9.50;99.90
23291;DHT22;11814;44.686;10.842;2023-12-20T14:09:23;9.50;99.90
23291;DHT22;11814;44.686;10.842;2023-12-20T14:11:49;9.50;99.90
23291;DHT22;11814;44.686;10.842;2023-12-20T14:14:14;9.40;99.90
23291;DHT22;11814;44.686;10.842;2023-12-20T14:16:40;9.40;99.90
23291;DHT22;11814;44.686;10.842;2023-12-20T14:19:06;9.40;99.90
23291;DHT22;11814;44.686;10.842;2023-12-20T14:21:34;9.30;99.90
23291;DHT22;11814;44.686;10.842;2023-12-20T14:24:00;9.40;99.90
23291;DHT22;11814;44.686;10.842;2023-12-20T14:26:26;9.30;99.90
23291;DHT22;11814;44.686;10.842;2023-12-20T14:28:53;9.30;99.90
23291;DHT22;11814;44.686;10.842;2023-12-20T14:31:18;9.40;99.90
23291;DHT22;11814;44.686;10.842;2023-12-20T14:33:44;9.30;99.90
23291;DHT22;11814;44.686;10.842;2023-12-20T14:36:11;9.30;99.90
23291;DHT22;11814;44.686;10.842;2023-12-20T14:38:37;9.30;99.90
23291;DHT22;11814;44.686;10.842;2023-12-20T14:41:03;9.30;99.90
23291;DHT22;11814;44.686;10.842;2023-12-20T14:43:29;9.30;99.90
23291;DHT22;11814;44.686;10.842;2023-12-20T14:45:55;9.30;99.90
23291;DHT22;11814;44.686;10.842;2023-12-20T14:48:21;9.30;99.90
23291;DHT22;11814;44.686;10.842;2023-12-20T14:50:46;9.30;99.90
23291;DHT22;11814;44.686;10.842;2023-12-20T14:53:14;9.30;99.90
23291;DHT22;11814;44.686;10.842;2023-12-20T14:55:44;9.20;99.90
23291;DHT22;11814;44.686;10.842;2023-12-20T14:58:09;9.30;99.90
23291;DHT22;11814;44.686;10.842;2023-12-20T15:00:35;9.10;99.90
23291;DHT22;11814;44.686;10.842;2023-12-20T15:03:01;9.10;99.90
23291;DHT22;11814;44.686;10.842;2023-12-20T15:05:29;9.10;99.90
23291;DHT22;11814;44.686;10.842;2023-12-20T15:07:55;9.10;99.90
23291;DHT22;11814;44.686;10.842;2023-12-20T15:10:20;9.10;99.90
23291;DHT22;11814;44.686;10.842;2023-12-20T15:12:46;9.00;99.90
23291;DHT22;11814;44.686;10.842;2023-12-20T15:15:12;8.90;99.90
23291;DHT22;11814;44.686;10.842;2023-12-20T15:17:37;8.80;99.90
23291;DHT22;11814;44.686;10.842;2023-12-20T15:20:03;8.70;99.90
23291;DHT22;11814;44.686;10.842;2023-12-20T15:22:30;8.70;99.90
23291;DHT22;11814;44.686;10.842;2023-12-20T15:24:57;8.60;99.90